createdAt,value
2023-02-20T00:01:54.922Z,74.11
2023-02-20T00:04:21.830Z,74.83
2023-02-20T00:06:48.409Z,73.98
2023-02-20T00:09:15.210Z,72.38
2023-02-20T00:11:42.121Z,73.69
2023-02-20T00:14:08.986Z,73.88
2023-02-20T00:16:35.507Z,75.61
2023-02-20T00:19:02.032Z,73.96
2023-02-20T00:21:28.589Z,75.31
2023-02-20T00:23:55.114Z,75.01
2023-02-20T00:26:21.645Z,75.61
2023-02-20T00:28:48.151Z,74.71
2023-02-20T00:31:18.620Z,74.87
2023-02-20T00:33:45.748Z,74.91
2023-02-20T00:36:19.986Z,76.36
2023-02-20T00:38:47.159Z,76.36
2023-02-20T00:41:15.506Z,77.28
2023-02-20T00:43:42.595Z,76.39
2023-02-20T00:46:14.370Z,77.90
2023-02-20T00:48:41.199Z,77.85
2023-02-20T00:51:07.770Z,77.66
2023-02-20T00:53:34.358Z,77.54
2023-02-20T00:56:00.878Z,77.81
2023-02-20T00:58:27.368Z,77.49
2023-02-20T01:00:53.901Z,78.20
2023-02-20T01:03:20.400Z,78.46
2023-02-20T01:05:46.964Z,78.37
2023-02-20T01:08:13.469Z,78.63
2023-02-20T01:10:39.969Z,76.63
2023-02-20T01:13:06.512Z,75.98
2023-02-20T01:15:33.149Z,77.76
2023-02-20T01:17:59.748Z,77.87
2023-02-20T01:20:26.338Z,77.30
2023-02-20T01:22:53.284Z,75.82
2023-02-20T01:25:19.775Z,77.21
2023-02-20T01:27:46.264Z,76.21
2023-02-20T01:30:13.152Z,76.51
2023-02-20T01:32:39.686Z,77.80
2023-02-20T01:35:06.566Z,77.79
2023-02-20T01:37:33.149Z,77.86
2023-02-20T01:39:59.790Z,77.41
2023-02-20T01:42:32.241Z,77.02
2023-02-20T01:45:22.838Z,76.92
2023-02-20T01:47:54.367Z,76.32
2023-02-20T01:50:25.474Z,76.94
2023-02-20T01:52:56.343Z,77.49
2023-02-20T01:55:29.675Z,78.12
2023-02-20T01:58:13.903Z,76.30
2023-02-20T02:00:41.012Z,75.26
2023-02-20T02:03:15.732Z,77.06
2023-02-20T02:05:46.423Z,78.14
2023-02-20T02:08:15.063Z,78.09
2023-02-20T02:11:12.864Z,79.42
2023-02-20T02:13:40.033Z,79.25
2023-02-20T02:16:25.388Z,78.78
2023-02-20T02:19:10.036Z,77.44
2023-02-20T02:21:55.315Z,77.40
2023-02-20T02:24:35.690Z,78.47
2023-02-20T02:27:20.736Z,77.98
2023-02-20T02:30:15.016Z,77.56
2023-02-20T02:33:26.304Z,79.15
2023-02-20T02:36:11.604Z,78.55
2023-02-20T02:39:13.837Z,77.32
2023-02-20T02:41:59.197Z,76.22
2023-02-20T02:44:56.087Z,78.48
2023-02-20T02:47:34.842Z,80.00
2023-02-20T02:50:22.525Z,79.42
2023-02-20T02:52:51.279Z,77.36
2023-02-20T02:55:24.473Z,77.30
2023-02-20T02:57:51.218Z,78.17
2023-02-20T03:00:20.714Z,79.13
2023-02-20T03:03:12.995Z,78.68
2023-02-20T03:05:46.625Z,79.42
2023-02-20T03:08:31.438Z,77.22
2023-02-20T03:11:05.651Z,79.37
2023-02-20T03:13:57.393Z,78.37
2023-02-20T03:16:37.898Z,79.79
2023-02-20T03:19:13.971Z,79.98
2023-02-20T03:21:48.304Z,80.49
2023-02-20T03:24:18.767Z,80.18
2023-02-20T03:26:46.500Z,80.04
2023-02-20T03:29:24.361Z,80.28
2023-02-20T03:32:15.606Z,79.89
2023-02-20T03:35:02.971Z,80.66
2023-02-20T03:37:53.404Z,80.04
2023-02-20T03:40:41.433Z,80.39
2023-02-20T03:43:25.916Z,80.17
2023-02-20T03:46:05.029Z,81.37
2023-02-20T03:48:35.379Z,80.09
2023-02-20T03:51:14.220Z,80.91
2023-02-20T03:53:43.204Z,81.30
2023-02-20T03:56:14.299Z,80.94
2023-02-20T03:58:45.134Z,79.88
2023-02-20T04:01:15.663Z,78.78
2023-02-20T04:03:45.962Z,80.09
2023-02-20T04:06:14.763Z,79.89
2023-02-20T04:08:44.513Z,81.41
2023-02-20T04:11:17.135Z,81.25
2023-02-20T04:13:44.716Z,80.52
2023-02-20T04:16:12.260Z,82.11
2023-02-20T04:18:39.079Z,81.51
2023-02-20T04:21:12.911Z,81.77
2023-02-20T04:23:45.592Z,81.84
2023-02-20T04:26:18.760Z,82.20
2023-02-20T04:28:45.800Z,82.53
2023-02-20T04:31:15.793Z,82.85
2023-02-20T04:33:42.531Z,83.13
2023-02-20T04:36:09.526Z,83.31
2023-02-20T04:38:36.013Z,83.61
2023-02-20T04:41:02.611Z,84.17
2023-02-20T04:43:29.290Z,84.20
2023-02-20T04:45:55.877Z,82.74
2023-02-20T04:48:22.441Z,81.96
2023-02-20T04:50:48.973Z,81.69
2023-02-20T04:53:15.543Z,82.45
2023-02-20T04:55:42.071Z,82.10
2023-02-20T04:58:08.601Z,81.00
2023-02-20T05:00:35.139Z,82.36
2023-02-20T05:03:01.900Z,82.17
2023-02-20T05:05:29.715Z,83.00
2023-02-20T05:08:04.623Z,82.82
2023-02-20T05:10:33.712Z,82.67
2023-02-20T05:13:00.873Z,82.75
2023-02-20T05:15:28.572Z,82.31
2023-02-20T05:17:55.388Z,81.84
2023-02-20T05:20:42.230Z,83.16
2023-02-20T05:23:08.979Z,82.29
2023-02-20T05:25:35.476Z,82.92
2023-02-20T05:28:02.110Z,82.33
2023-02-20T05:30:28.679Z,82.66
2023-02-20T05:32:55.232Z,82.31
2023-02-20T05:35:21.758Z,83.62
2023-02-20T05:37:48.558Z,83.42
2023-02-20T05:40:15.167Z,81.67
2023-02-20T05:42:41.803Z,83.23
2023-02-20T05:45:09.193Z,83.94
2023-02-20T05:47:38.487Z,83.77
2023-02-20T05:50:05.500Z,82.61
2023-02-20T05:52:32.588Z,83.36
2023-02-20T05:54:59.273Z,84.37
2023-02-20T05:57:25.886Z,85.05
2023-02-20T05:59:52.429Z,82.67
2023-02-20T06:02:19.007Z,81.55
2023-02-20T06:04:45.560Z,81.57
2023-02-20T06:07:12.404Z,83.45
2023-02-20T06:09:43.310Z,84.13
2023-02-20T06:12:10.515Z,82.93
2023-02-20T06:14:37.076Z,83.60
2023-02-20T06:17:03.705Z,83.66
2023-02-20T06:19:30.299Z,83.90
2023-02-20T06:21:58.878Z,84.17
2023-02-20T06:24:26.071Z,83.70
2023-02-20T06:26:53.233Z,84.00
2023-02-20T06:29:20.298Z,83.82
2023-02-20T06:31:47.057Z,83.95
2023-02-20T06:34:14.372Z,83.63
2023-02-20T06:36:42.269Z,83.71
2023-02-20T06:39:10.961Z,83.15
2023-02-20T06:41:37.630Z,83.55
2023-02-20T06:44:04.548Z,83.45
2023-02-20T06:46:31.672Z,83.06
2023-02-20T06:48:59.410Z,82.61
2023-02-20T06:51:32.347Z,83.69
2023-02-20T06:53:59.860Z,82.75
2023-02-20T06:56:29.381Z,85.01
2023-02-20T06:58:57.018Z,84.47
2023-02-20T07:01:27.175Z,84.99
2023-02-20T07:03:55.271Z,84.88
2023-02-20T07:06:23.416Z,84.85
2023-02-20T07:08:50.683Z,84.29
2023-02-20T07:11:22.428Z,81.98
2023-02-20T07:13:49.594Z,82.77
2023-02-20T07:16:16.751Z,83.32
2023-02-20T07:18:43.483Z,83.61
2023-02-20T07:21:10.093Z,82.99
2023-02-20T07:23:36.666Z,83.57
2023-02-20T07:26:03.642Z,83.57
2023-02-20T07:28:30.229Z,83.01
2023-02-20T07:30:56.784Z,83.63
2023-02-20T07:33:23.418Z,82.70
2023-02-20T07:35:50.177Z,82.34
2023-02-20T07:38:16.774Z,82.75
2023-02-20T07:40:43.448Z,83.24
2023-02-20T07:43:10.106Z,82.85
2023-02-20T07:45:37.611Z,82.15
2023-02-20T07:48:04.237Z,81.85
2023-02-20T07:50:30.853Z,81.67
2023-02-20T07:52:57.393Z,81.72
2023-02-20T07:55:23.926Z,81.20
2023-02-20T07:57:54.320Z,81.73
2023-02-20T08:00:21.897Z,81.98
2023-02-20T08:02:48.671Z,81.16
2023-02-20T08:05:15.493Z,81.60
2023-02-20T08:07:49.913Z,81.49
2023-02-20T08:10:18.743Z,81.32
2023-02-20T08:12:46.524Z,82.08
2023-02-20T08:15:13.265Z,81.05
2023-02-20T08:17:46.950Z,81.36
2023-02-20T08:20:15.756Z,81.45
2023-02-20T08:22:44.434Z,81.25
2023-02-20T08:25:10.979Z,81.31
2023-02-20T08:27:41.603Z,81.58
2023-02-20T08:30:10.700Z,81.74
2023-02-20T08:32:37.415Z,81.83
2023-02-20T08:35:04.355Z,81.62
2023-02-20T08:37:30.887Z,81.48
2023-02-20T08:39:57.486Z,80.97
2023-02-20T08:42:24.142Z,80.72
2023-02-20T08:44:50.703Z,81.09
2023-02-20T08:47:21.009Z,80.38
2023-02-20T08:49:48.756Z,79.98
2023-02-20T08:52:16.467Z,79.25
2023-02-20T08:54:49.798Z,79.27
2023-02-20T08:57:17.732Z,79.01
2023-02-20T08:59:44.863Z,78.22
2023-02-20T09:02:20.682Z,78.70
2023-02-20T09:04:47.515Z,77.63
2023-02-20T09:07:14.516Z,77.23
2023-02-20T09:09:41.208Z,76.48
2023-02-20T09:12:09.178Z,76.56
2023-02-20T09:14:36.461Z,76.18
2023-02-20T09:17:03.036Z,75.86
2023-02-20T09:19:29.743Z,76.04
2023-02-20T09:21:57.057Z,74.93
2023-02-20T09:24:23.774Z,73.42
2023-02-20T09:26:50.562Z,75.02
2023-02-20T09:29:17.354Z,74.33
2023-02-20T09:31:44.029Z,73.12
2023-02-20T09:34:10.654Z,72.97
2023-02-20T09:36:37.262Z,74.17
2023-02-20T09:39:04.173Z,73.40
2023-02-20T09:41:52.808Z,72.78
2023-02-20T09:44:42.822Z,73.05
2023-02-20T09:47:43.267Z,71.64
2023-02-20T09:50:16.813Z,72.05
2023-02-20T09:52:47.044Z,72.35
2023-02-20T09:55:20.726Z,71.21
2023-02-20T09:57:55.409Z,70.01
2023-02-20T10:00:30.560Z,69.65
2023-02-20T10:03:25.074Z,69.27
2023-02-20T10:05:52.163Z,69.38
2023-02-20T10:08:21.935Z,69.82
2023-02-20T10:10:50.739Z,69.99
2023-02-20T10:13:41.938Z,68.63
2023-02-20T10:16:14.347Z,68.03
2023-02-20T10:18:54.448Z,67.23
2023-02-20T10:21:48.970Z,67.59
2023-02-20T10:24:32.490Z,68.47
2023-02-20T10:27:24.876Z,67.23
2023-02-20T10:29:53.522Z,67.22
2023-02-20T10:32:45.126Z,66.92
2023-02-20T10:35:20.643Z,67.06
2023-02-20T10:37:53.428Z,66.37
2023-02-20T10:40:36.342Z,67.04
2023-02-20T10:43:21.584Z,65.28
2023-02-20T10:46:12.576Z,65.60
2023-02-20T10:48:42.711Z,66.12
2023-02-20T10:51:11.655Z,65.97
2023-02-20T10:53:42.593Z,66.52
2023-02-20T10:56:33.461Z,65.74
2023-02-20T10:59:39.265Z,63.96
2023-02-20T11:02:15.601Z,65.32
2023-02-20T11:04:49.794Z,64.54
2023-02-20T11:07:19.163Z,65.49
2023-02-20T11:09:45.964Z,63.61
2023-02-20T11:12:25.898Z,64.73
2023-02-20T11:14:56.281Z,63.94
2023-02-20T11:17:27.177Z,63.76
2023-02-20T11:20:00.822Z,63.37
2023-02-20T11:22:51.654Z,63.15
2023-02-20T11:25:20.300Z,64.20
2023-02-20T11:27:50.023Z,64.81
2023-02-20T11:30:34.464Z,61.70
2023-02-20T11:33:23.045Z,62.74
2023-02-20T11:35:53.084Z,62.58
2023-02-20T11:38:22.559Z,62.52
2023-02-20T11:41:27.795Z,61.15
2023-02-20T11:44:18.464Z,60.47
2023-02-20T11:46:47.381Z,59.13
2023-02-20T11:49:29.139Z,60.10
2023-02-20T11:52:16.698Z,58.76
2023-02-20T11:54:43.723Z,58.49
2023-02-20T11:57:16.263Z,58.31
2023-02-20T11:59:47.595Z,59.37
2023-02-20T12:02:17.220Z,59.79
2023-02-20T12:05:08.924Z,59.88
2023-02-20T12:07:53.488Z,61.00
2023-02-20T12:10:23.252Z,60.40
2023-02-20T12:12:50.352Z,60.88
2023-02-20T12:15:19.508Z,60.42
2023-02-20T12:18:08.013Z,60.63
2023-02-20T12:20:39.793Z,60.11
2023-02-20T12:23:18.161Z,59.90
2023-02-20T12:26:02.653Z,60.82
2023-02-20T12:28:38.326Z,60.00
2023-02-20T12:31:36.544Z,60.22
2023-02-20T12:34:18.439Z,59.26
2023-02-20T12:37:02.271Z,58.55
2023-02-20T12:39:50.347Z,58.33
2023-02-20T12:42:29.932Z,58.45
2023-02-20T12:45:03.232Z,55.56
2023-02-20T12:47:36.326Z,56.20
2023-02-20T12:50:40.218Z,56.97
2023-02-20T12:53:12.415Z,56.16
2023-02-20T12:55:54.116Z,55.74
2023-02-20T12:58:34.011Z,55.61
2023-02-20T13:01:05.369Z,56.34
2023-02-20T13:04:17.115Z,55.62
2023-02-20T13:06:49.802Z,56.42
2023-02-20T13:09:23.354Z,56.35
2023-02-20T13:11:56.445Z,56.63
2023-02-20T13:14:30.738Z,56.06
2023-02-20T13:17:12.687Z,56.28
2023-02-20T13:19:50.639Z,55.24
2023-02-20T13:22:18.691Z,54.02
2023-02-20T13:24:45.253Z,55.35
2023-02-20T13:27:32.103Z,55.79
2023-02-20T13:30:18.861Z,54.56
2023-02-20T13:32:45.812Z,54.38
2023-02-20T13:35:51.350Z,54.66
2023-02-20T13:38:20.696Z,53.75
2023-02-20T13:40:56.591Z,53.36
2023-02-20T13:43:23.420Z,54.10
2023-02-20T13:46:14.930Z,53.95
2023-02-20T13:48:47.819Z,51.87
2023-02-20T13:51:14.336Z,51.38
2023-02-20T13:53:43.409Z,51.27
2023-02-20T13:56:17.682Z,50.49
2023-02-20T13:58:48.793Z,49.67
2023-02-20T14:01:15.841Z,49.43
2023-02-20T14:03:42.809Z,49.41
2023-02-20T14:06:19.169Z,48.98
2023-02-20T14:08:47.958Z,48.16
2023-02-20T14:11:32.406Z,48.43
2023-02-20T14:14:01.807Z,49.56
2023-02-20T14:16:28.609Z,50.81
2023-02-20T14:19:05.910Z,50.30
2023-02-20T14:21:34.993Z,49.73
2023-02-20T14:24:19.465Z,49.29
2023-02-20T14:26:46.762Z,49.02
2023-02-20T14:29:29.079Z,48.25
2023-02-20T14:31:58.357Z,45.12
2023-02-20T14:34:52.849Z,45.56
2023-02-20T14:37:30.542Z,46.47
2023-02-20T14:40:14.788Z,46.00
2023-02-20T14:42:46.505Z,46.68
2023-02-20T14:45:26.476Z,47.33
2023-02-20T14:47:55.908Z,48.20
2023-02-20T14:50:25.788Z,47.36
2023-02-20T14:53:02.838Z,47.60
2023-02-20T14:55:30.031Z,46.54
2023-02-20T14:57:56.590Z,45.69
2023-02-20T15:00:32.648Z,46.68
2023-02-20T15:02:59.664Z,46.07
2023-02-20T15:05:32.567Z,46.17
2023-02-20T15:08:10.934Z,46.33
2023-02-20T15:10:43.534Z,46.04
2023-02-20T15:13:22.092Z,45.84
2023-02-20T15:16:04.284Z,46.14
2023-02-20T15:18:42.815Z,47.11
2023-02-20T15:21:11.738Z,46.48
2023-02-20T15:23:41.473Z,46.94
2023-02-20T15:26:29.989Z,46.70
2023-02-20T15:29:23.837Z,46.93
2023-02-20T15:31:59.526Z,47.31
2023-02-20T15:34:29.069Z,47.89
2023-02-20T15:36:56.544Z,48.21
2023-02-20T15:39:23.264Z,47.68
2023-02-20T15:41:49.839Z,48.20
2023-02-20T15:44:17.121Z,46.38
2023-02-20T15:46:43.641Z,44.96
2023-02-20T15:49:16.048Z,46.76
2023-02-20T15:51:47.366Z,45.05
2023-02-20T15:54:17.706Z,44.46
2023-02-20T15:56:45.174Z,43.17
2023-02-20T15:59:12.395Z,43.69
2023-02-20T16:01:40.344Z,43.11
2023-02-20T16:04:08.550Z,43.06
2023-02-20T16:06:35.534Z,43.98
2023-02-20T16:09:02.220Z,44.85
2023-02-20T16:11:38.180Z,47.89
2023-02-20T16:14:05.205Z,49.44
2023-02-20T16:16:38.795Z,53.17
2023-02-20T16:19:13.952Z,56.81
2023-02-20T16:21:42.902Z,58.36
2023-02-20T16:24:15.182Z,60.56
2023-02-20T16:26:46.388Z,61.92
2023-02-20T16:29:19.918Z,62.96
2023-02-20T16:31:55.676Z,63.87
2023-02-20T16:34:24.961Z,64.72
2023-02-20T16:36:53.063Z,65.39
2023-02-20T16:39:26.884Z,65.95
2023-02-20T16:41:54.786Z,66.25
2023-02-20T16:44:45.830Z,66.11
2023-02-20T16:47:14.532Z,66.74
2023-02-20T16:49:41.089Z,66.71
2023-02-20T16:52:24.187Z,67.53
2023-02-20T16:54:51.546Z,68.17
2023-02-20T16:57:18.876Z,68.33
2023-02-20T16:59:45.432Z,68.67
2023-02-20T17:02:17.782Z,69.07
2023-02-20T17:04:44.632Z,69.02
2023-02-20T17:07:11.376Z,68.85
2023-02-20T17:09:44.331Z,70.21
2023-02-20T17:12:12.983Z,70.71
2023-02-20T17:14:39.656Z,70.54
2023-02-20T17:17:07.025Z,70.56
2023-02-20T17:19:36.332Z,71.72
2023-02-20T17:22:02.952Z,71.43
2023-02-20T17:24:29.784Z,71.59
2023-02-20T17:26:56.424Z,70.99
2023-02-20T17:29:23.052Z,71.32
2023-02-20T17:31:49.852Z,71.94
2023-02-20T17:34:16.580Z,70.93
2023-02-20T17:36:48.207Z,71.43
2023-02-20T17:39:20.759Z,72.36
2023-02-20T17:41:51.825Z,72.30
2023-02-20T17:44:20.852Z,72.74
2023-02-20T17:46:50.736Z,73.19
2023-02-20T17:49:17.871Z,72.92
2023-02-20T17:51:45.466Z,72.50
2023-02-20T17:54:13.037Z,72.56
2023-02-20T17:56:41.838Z,73.83
2023-02-20T17:59:08.900Z,74.09
2023-02-20T18:01:35.566Z,73.63
2023-02-20T18:04:04.631Z,73.81
2023-02-20T18:06:34.347Z,73.80
2023-02-20T18:09:01.330Z,74.01
2023-02-20T18:11:28.695Z,73.44
2023-02-20T18:13:56.504Z,73.74
2023-02-20T18:16:24.729Z,73.97
2023-02-20T18:18:51.476Z,74.48
2023-02-20T18:21:26.409Z,75.10
2023-02-20T18:23:53.687Z,74.76
2023-02-20T18:26:20.601Z,75.02
2023-02-20T18:28:47.557Z,75.24
2023-02-20T18:31:14.820Z,75.07
2023-02-20T18:33:41.642Z,74.96
2023-02-20T18:36:08.880Z,75.20
2023-02-20T18:38:36.384Z,75.76
2023-02-20T18:41:03.941Z,75.15
2023-02-20T18:43:31.321Z,75.41
2023-02-20T18:45:57.913Z,75.22
2023-02-20T18:48:24.475Z,75.79
2023-02-20T18:50:51.822Z,75.58
2023-02-20T18:53:18.485Z,75.07
2023-02-20T18:55:45.072Z,75.64
2023-02-20T18:58:11.681Z,75.98
2023-02-20T19:00:40.633Z,75.17
2023-02-20T19:03:07.724Z,76.46
2023-02-20T19:05:34.359Z,76.60
2023-02-20T19:08:03.757Z,76.59
2023-02-20T19:10:31.032Z,77.54
2023-02-20T19:12:57.696Z,77.07
2023-02-20T19:15:25.002Z,77.50
2023-02-20T19:17:52.259Z,77.24
2023-02-20T19:20:25.191Z,77.61
2023-02-20T19:22:56.529Z,77.77
2023-02-20T19:25:23.373Z,77.41
2023-02-20T19:27:50.016Z,77.56
2023-02-20T19:30:17.630Z,78.13
2023-02-20T19:32:44.392Z,78.38
2023-02-20T19:35:11.517Z,77.86
2023-02-20T19:37:39.086Z,77.62
2023-02-20T19:40:07.645Z,77.99
2023-02-20T19:42:35.314Z,78.36
2023-02-20T19:45:02.212Z,78.25
2023-02-20T19:47:29.046Z,78.75
2023-02-20T19:49:55.658Z,78.54
2023-02-20T19:52:22.166Z,77.63
2023-02-20T19:54:48.745Z,78.75
2023-02-20T19:57:15.378Z,78.68
2023-02-20T19:59:42.942Z,77.71
2023-02-20T20:02:11.875Z,77.96
2023-02-20T20:04:39.296Z,78.12
2023-02-20T20:07:06.049Z,78.40
2023-02-20T20:09:37.056Z,78.80
2023-02-20T20:12:26.180Z,79.50
2023-02-20T20:14:53.220Z,79.82
2023-02-20T20:17:20.042Z,79.95
2023-02-20T20:19:58.420Z,79.49
2023-02-20T20:22:26.495Z,79.46
2023-02-20T20:24:53.107Z,79.18
2023-02-20T20:27:20.904Z,79.48
2023-02-20T20:29:50.796Z,79.66
2023-02-20T20:32:18.690Z,80.08
2023-02-20T20:34:53.200Z,79.77
2023-02-20T20:37:20.577Z,79.04
2023-02-20T20:39:47.265Z,79.14
2023-02-20T20:42:15.082Z,80.09
2023-02-20T20:44:41.592Z,80.08
2023-02-20T20:47:08.169Z,80.38
2023-02-20T20:49:34.746Z,79.70
2023-02-20T20:52:01.243Z,80.68
2023-02-20T20:54:27.748Z,80.84
2023-02-20T20:56:54.314Z,80.10
2023-02-20T20:59:20.873Z,80.53
2023-02-20T21:01:47.961Z,80.40
2023-02-20T21:04:14.558Z,81.34
2023-02-20T21:06:41.202Z,82.18
2023-02-20T21:09:07.715Z,81.59
2023-02-20T21:11:35.544Z,81.56
2023-02-20T21:14:02.383Z,81.25
2023-02-20T21:16:28.991Z,81.42
2023-02-20T21:18:55.586Z,81.25
2023-02-20T21:21:29.753Z,81.88
2023-02-20T21:23:56.250Z,81.81
2023-02-20T21:26:23.311Z,81.48
2023-02-20T21:28:50.198Z,82.14
2023-02-20T21:31:17.723Z,81.89
2023-02-20T21:33:44.788Z,82.83
2023-02-20T21:36:11.438Z,83.27
2023-02-20T21:38:37.970Z,82.61
2023-02-20T21:41:04.916Z,82.15
2023-02-20T21:43:49.997Z,82.80
2023-02-20T21:46:19.357Z,83.91
2023-02-20T21:48:45.953Z,83.04
2023-02-20T21:51:12.731Z,81.95
2023-02-20T21:53:39.427Z,83.34
2023-02-20T21:56:06.058Z,82.77
2023-02-20T21:58:51.169Z,83.22
2023-02-20T22:01:17.741Z,83.72
2023-02-20T22:03:44.220Z,83.50
2023-02-20T22:06:10.715Z,83.72
2023-02-20T22:08:55.600Z,83.57
2023-02-20T22:11:40.374Z,83.67
2023-02-20T22:14:25.235Z,83.75
2023-02-20T22:17:10.586Z,82.97
2023-02-20T22:19:55.756Z,83.39
2023-02-20T22:22:40.609Z,83.83
2023-02-20T22:25:28.455Z,83.94
2023-02-20T22:28:13.302Z,83.99
2023-02-20T22:30:58.093Z,84.33
2023-02-20T22:33:43.325Z,84.31
2023-02-20T22:36:28.651Z,83.90
2023-02-20T22:39:13.483Z,84.23
2023-02-20T22:41:58.728Z,84.58
2023-02-20T22:44:44.224Z,83.85
2023-02-20T22:47:29.692Z,84.53
2023-02-20T22:50:15.350Z,85.23
2023-02-20T22:53:00.516Z,84.43
2023-02-20T22:55:45.862Z,84.84
2023-02-20T22:58:31.181Z,84.06
2023-02-20T23:01:16.516Z,84.86
2023-02-20T23:04:01.785Z,84.74
2023-02-20T23:06:46.663Z,85.54
2023-02-20T23:09:32.109Z,84.96
2023-02-20T23:12:17.363Z,85.49
2023-02-20T23:15:02.565Z,85.03
2023-02-20T23:17:47.887Z,85.83
2023-02-20T23:20:35.897Z,85.91
2023-02-20T23:23:21.723Z,86.01
2023-02-20T23:26:06.837Z,86.60
2023-02-20T23:28:52.998Z,85.62
2023-02-20T23:31:38.339Z,86.84
2023-02-20T23:34:23.564Z,87.31
2023-02-20T23:37:10.939Z,85.65
2023-02-20T23:39:56.650Z,86.39
2023-02-20T23:42:41.734Z,86.16
2023-02-20T23:45:27.282Z,86.59
2023-02-20T23:48:12.425Z,86.20
2023-02-20T23:50:57.387Z,86.15
2023-02-20T23:53:42.141Z,85.48
2023-02-20T23:56:27.550Z,86.33
2023-02-20T23:59:12.358Z,86.79
